Time;durP1;ratioP1;P1;durP2;ratioP2;P2;SDS_P1;SDS_P2;PMS_P1;PMS_P2;Temp;Humidity;BMP_temperature;BMP_pressure;BME280_temperature;BME280_humidity;BME280_pressure;Samples;Min_cycle;Max_cycle;Signal;HPM_P1;HPM_P2
2021/04/18 00:01:07;;;;;;;10.87;7.57;;;10.50;98.30;;;;;;5111187;23;20429;-80
2021/04/18 00:03:09;;;;;;;12.17;6.67;;;10.50;98.30;;;;;;5104246;23;20992;-80
2021/04/18 00:05:13;;;;;;;11.00;6.83;;;10.50;98.30;;;;;;5103901;23;20450;-82
2021/04/18 00:07:15;;;;;;;14.33;7.37;;;10.50;98.30;;;;;;5101226;23;20501;-81
2021/04/18 00:09:17;;;;;;;8.20;6.00;;;10.60;98.30;;;;;;5101311;23;20458;-82
2021/04/18 00:11:20;;;;;;;11.37;6.40;;;10.60;98.30;;;;;;5094306;23;20570;-81
2021/04/18 00:13:23;;;;;;;10.97;7.17;;;10.60;98.30;;;;;;5096283;23;20545;-81
2021/04/18 00:15:25;;;;;;;8.47;6.90;;;10.50;98.30;;;;;;5101613;23;20458;-82
2021/04/18 00:17:27;;;;;;;12.90;7.10;;;10.50;98.30;;;;;;5092798;23;20565;-81
2021/04/18 00:19:34;;;;;;;11.20;7.10;;;10.40;98.30;;;;;;5101077;23;20425;-82
2021/04/18 00:21:36;;;;;;;12.33;7.10;;;10.40;98.30;;;;;;5093501;23;20478;-83
2021/04/18 00:23:38;;;;;;;9.07;6.30;;;10.50;98.30;;;;;;5102148;23;20514;-81
2021/04/18 00:25:41;;;;;;;10.97;7.13;;;10.50;98.30;;;;;;5101663;23;20476;-83
2021/04/18 00:27:45;;;;;;;8.97;6.93;;;10.50;98.30;;;;;;5102192;23;20768;-79
2021/04/18 00:29:47;;;;;;;9.27;6.73;;;10.50;98.30;;;;;;5093885;23;21066;-82
2021/04/18 00:31:49;;;;;;;13.03;7.10;;;10.50;98.30;;;;;;5102221;23;20772;-82
2021/04/18 00:33:51;;;;;;;8.70;6.87;;;10.60;98.30;;;;;;5095386;23;20429;-83
2021/04/18 00:36:03;;;;;;;10.90;7.27;;;10.60;98.30;;;;;;5095177;23;20466;-82
2021/04/18 00:38:05;;;;;;;9.90;7.07;;;10.60;98.30;;;;;;5102951;23;20451;-83
2021/04/18 00:40:09;;;;;;;12.80;6.90;;;10.60;98.30;;;;;;5095214;23;20430;-83
2021/04/18 00:42:11;;;;;;;7.60;6.37;;;10.60;98.30;;;;;;5103494;23;20514;-83
2021/04/18 00:44:13;;;;;;;11.40;7.17;;;10.60;98.30;;;;;;5095049;23;20454;-81
2021/04/18 00:46:16;;;;;;;10.60;8.43;;;10.60;98.30;;;;;;5094998;23;20482;-84
2021/04/18 00:48:18;;;;;;;9.17;6.70;;;10.60;98.30;;;;;;5093791;23;20459;-82
2021/04/18 00:50:23;;;;;;;10.00;6.73;;;10.70;98.30;;;;;;5094416;23;20451;-81
2021/04/18 00:52:25;;;;;;;10.33;7.50;;;10.70;98.30;;;;;;5102225;23;20449;-83
2021/04/18 00:54:28;;;;;;;11.50;6.97;;;10.70;98.30;;;;;;5100284;23;20469;-82
2021/04/18 00:56:30;;;;;;;9.10;6.77;;;10.70;98.30;;;;;;5092422;23;20542;-82
2021/04/18 00:58:32;;;;;;;8.20;7.00;;;10.70;98.30;;;;;;5100448;23;20453;-82
2021/04/18 01:00:35;;;;;;;9.80;6.33;;;10.70;98.30;;;;;;5102019;23;20470;-83
2021/04/18 01:02:38;;;;;;;13.60;7.40;;;10.80;98.30;;;;;;5095000;23;20459;-82
2021/04/18 01:04:40;;;;;;;10.13;7.00;;;10.70;98.30;;;;;;5104098;23;20443;-82
2021/04/18 01:06:41;;;;;;;11.60;7.93;;;10.60;98.30;;;;;;5094780;23;20462;-82
2021/04/18 01:08:43;;;;;;;8.77;6.50;;;10.60;98.30;;;;;;5093813;23;20465;-80
2021/04/18 01:10:45;;;;;;;10.77;7.00;;;10.60;98.30;;;;;;5103044;23;20981;-83
2021/04/18 01:12:47;;;;;;;10.87;6.70;;;10.60;98.30;;;;;;5102128;23;20457;-83
2021/04/18 01:14:49;;;;;;;11.57;6.43;;;10.60;98.30;;;;;;5095301;23;20455;-83
2021/04/18 01:16:51;;;;;;;10.00;6.10;;;10.50;98.30;;;;;;5102692;23;20453;-83
2021/04/18 01:18:54;;;;;;;9.67;6.60;;;10.50;98.30;;;;;;5102955;23;20482;-83
2021/04/18 01:21:07;;;;;;;9.17;6.10;;;10.50;98.30;;;;;;5102942;23;20830;-83
2021/04/18 01:23:09;;;;;;;10.87;7.00;;;10.40;98.30;;;;;;5102768;23;20447;-83
2021/04/18 01:25:12;;;;;;;8.80;6.80;;;10.40;98.30;;;;;;5095344;23;20813;-83
2021/04/18 01:27:16;;;;;;;9.03;6.40;;;10.40;98.30;;;;;;5095481;23;20466;-82
2021/04/18 01:29:19;;;;;;;8.30;6.10;;;10.30;98.30;;;;;;5096100;23;20455;-82
2021/04/18 01:31:20;;;;;;;8.03;6.10;;;10.30;98.30;;;;;;5103965;23;20447;-83
2021/04/18 01:33:23;;;;;;;9.80;6.30;;;10.30;98.30;;;;;;5095693;23;20465;-83
2021/04/18 01:35:25;;;;;;;8.90;6.40;;;10.20;98.30;;;;;;5104049;23;20454;-82
2021/04/18 01:37:28;;;;;;;14.77;6.83;;;10.20;98.30;;;;;;5097593;23;20469;-83
2021/04/18 01:39:30;;;;;;;10.30;6.13;;;10.20;98.30;;;;;;5098036;23;20433;-82
2021/04/18 01:41:32;;;;;;;11.87;6.60;;;10.20;98.30;;;;;;5106135;23;20421;-83
2021/04/18 01:43:34;;;;;;;10.23;6.00;;;10.20;98.30;;;;;;5105674;23;20466;-83
2021/04/18 01:45:36;;;;;;;10.10;6.30;;;10.10;98.30;;;;;;5105510;23;20443;-81
2021/04/18 01:47:39;;;;;;;9.47;7.17;;;10.00;98.30;;;;;;5097765;23;20477;-81
2021/04/18 01:49:41;;;;;;;10.00;6.50;;;9.90;98.30;;;;;;5106164;23;20449;-82
2021/04/18 01:51:42;;;;;;;9.33;6.53;;;9.90;98.30;;;;;;5103432;23;20508;-82
2021/04/18 01:53:45;;;;;;;8.70;5.80;;;10.00;98.30;;;;;;5096224;23;20454;-83
2021/04/18 01:55:47;;;;;;;7.70;5.60;;;9.90;98.30;;;;;;5095154;23;20546;-82
2021/04/18 01:57:50;;;;;;;10.07;5.83;;;9.80;98.30;;;;;;5096318;23;20459;-82
2021/04/18 01:59:52;;;;;;;9.43;5.87;;;9.80;98.30;;;;;;5103591;23;20451;-80
2021/04/18 02:02:05;;;;;;;9.50;6.43;;;9.80;98.30;;;;;;5105446;23;20425;-83
2021/04/18 02:04:19;;;;;;;10.77;6.50;;;9.70;98.30;;;;;;5103586;23;20793;-81
2021/04/18 02:06:21;;;;;;;9.83;6.27;;;9.70;98.30;;;;;;5095413;23;20979;-82
2021/04/18 02:08:23;;;;;;;11.17;6.70;;;9.60;98.30;;;;;;5091909;23;20465;-82
2021/04/18 02:10:26;;;;;;;8.97;5.90;;;9.60;98.30;;;;;;5092237;23;20436;-82
2021/04/18 02:12:28;;;;;;;12.27;6.03;;;9.60;98.30;;;;;;5092498;23;20459;-82
2021/04/18 02:14:30;;;;;;;8.43;5.73;;;9.60;98.30;;;;;;5099345;23;20519;-82
2021/04/18 02:16:32;;;;;;;11.30;5.57;;;9.60;98.30;;;;;;5099508;23;20519;-82
2021/04/18 02:18:34;;;;;;;9.37;5.77;;;9.50;98.30;;;;;;5100278;23;20441;-83
2021/04/18 02:20:36;;;;;;;9.07;6.20;;;9.50;98.30;;;;;;5092716;23;20450;-83
2021/04/18 02:22:38;;;;;;;8.83;5.50;;;9.40;98.30;;;;;;5096034;23;20497;-81
2021/04/18 02:24:40;;;;;;;13.13;5.40;;;9.40;98.30;;;;;;5098771;23;20445;-83
2021/04/18 02:26:43;;;;;;;11.40;5.53;;;9.40;98.30;;;;;;5106251;23;20764;-83
2021/04/18 02:28:44;;;;;;;12.43;5.50;;;9.40;98.30;;;;;;5106009;23;20979;-84
2021/04/18 02:30:46;;;;;;;10.13;6.50;;;9.40;98.30;;;;;;5098003;23;20455;-83
2021/04/18 02:32:48;;;;;;;13.17;6.30;;;9.40;98.30;;;;;;5098821;23;20501;-81
2021/04/18 02:34:51;;;;;;;7.60;5.10;;;9.40;98.30;;;;;;5104089;23;20462;-81
2021/04/18 02:36:53;;;;;;;7.33;6.07;;;9.40;98.30;;;;;;5100035;23;20510;-82
2021/04/18 02:38:55;;;;;;;7.83;5.33;;;9.30;98.30;;;;;;5092100;23;20457;-81
2021/04/18 02:40:57;;;;;;;12.90;5.87;;;9.30;98.30;;;;;;5092811;23;20429;-83
2021/04/18 02:43:00;;;;;;;8.20;5.70;;;9.20;98.30;;;;;;5107844;23;20432;-78
2021/04/18 02:45:02;;;;;;;9.73;5.97;;;9.30;98.30;;;;;;5115620;23;20431;-78
2021/04/18 02:47:04;;;;;;;8.20;5.10;;;9.30;98.30;;;;;;5115807;23;20432;-78
2021/04/18 02:49:06;;;;;;;11.67;5.60;;;9.30;98.30;;;;;;5115404;23;20512;-78
2021/04/18 02:51:08;;;;;;;6.43;5.20;;;9.20;98.30;;;;;;5115844;23;20442;-78
2021/04/18 02:53:10;;;;;;;14.20;6.17;;;9.20;98.30;;;;;;5115835;23;20431;-78
2021/04/18 02:55:12;;;;;;;8.00;4.80;;;9.10;98.30;;;;;;5115464;23;21037;-77
2021/04/18 02:57:14;;;;;;;11.37;5.70;;;9.10;98.30;;;;;;5115792;23;20454;-78
2021/04/18 02:59:17;;;;;;;13.50;6.23;;;9.10;98.30;;;;;;5116120;23;20432;-78
2021/04/18 03:01:19;;;;;;;9.97;6.00;;;9.10;98.30;;;;;;5115981;23;20943;-78
2021/04/18 03:03:21;;;;;;;7.67;5.13;;;9.10;98.30;;;;;;5115731;23;20435;-78
2021/04/18 03:05:23;;;;;;;7.13;5.30;;;9.10;98.30;;;;;;5123724;23;20480;-78
2021/04/18 03:07:25;;;;;;;7.30;5.30;;;9.10;98.30;;;;;;5115856;23;20911;-77
2021/04/18 03:09:27;;;;;;;5.87;4.73;;;9.00;98.30;;;;;;5115498;23;20478;-78
2021/04/18 03:11:29;;;;;;;9.77;5.20;;;8.90;98.30;;;;;;5115515;23;20460;-78
2021/04/18 03:13:31;;;;;;;10.47;4.93;;;8.90;98.30;;;;;;5115900;23;20450;-78
2021/04/18 03:15:35;;;;;;;7.33;5.17;;;8.90;98.30;;;;;;5115464;23;21001;-78
2021/04/18 03:17:37;;;;;;;6.20;5.00;;;8.90;98.30;;;;;;5115516;23;20454;-77
2021/04/18 03:19:39;;;;;;;8.50;5.40;;;8.80;98.30;;;;;;5115406;23;20453;-78
2021/04/18 03:21:41;;;;;;;7.10;5.40;;;8.80;98.30;;;;;;5123813;23;20442;-78
2021/04/18 03:23:43;;;;;;;8.37;5.10;;;8.80;98.30;;;;;;5115704;23;20464;-78
2021/04/18 03:25:44;;;;;;;5.70;4.93;;;8.70;98.30;;;;;;5115738;23;20423;-78
2021/04/18 03:27:46;;;;;;;11.53;5.10;;;8.60;98.30;;;;;;5115705;23;20458;-78
2021/04/18 03:29:48;;;;;;;9.97;5.27;;;8.60;98.30;;;;;;5115821;23;20453;-77
2021/04/18 03:31:51;;;;;;;10.80;5.20;;;8.60;98.30;;;;;;5115483;23;20454;-77
2021/04/18 03:33:53;;;;;;;7.97;4.87;;;8.60;98.30;;;;;;5123564;23;20454;-77
2021/04/18 03:35:55;;;;;;;9.17;5.23;;;8.60;98.30;;;;;;5115421;23;20439;-77
2021/04/18 03:37:57;;;;;;;13.47;5.00;;;8.60;98.30;;;;;;5115363;23;20959;-77
2021/04/18 03:39:59;;;;;;;7.17;6.17;;;8.60;98.30;;;;;;5115774;23;20844;-77
2021/04/18 03:42:01;;;;;;;10.60;5.40;;;8.50;98.30;;;;;;5115586;23;20920;-77
2021/04/18 03:44:03;;;;;;;9.53;5.80;;;8.60;98.30;;;;;;5115823;23;20439;-78
2021/04/18 03:46:05;;;;;;;10.23;5.80;;;8.50;98.30;;;;;;5115448;23;20446;-78
2021/04/18 03:48:09;;;;;;;8.47;5.10;;;8.40;98.30;;;;;;5114822;23;20461;-78
2021/04/18 03:50:12;;;;;;;8.30;4.67;;;8.40;98.30;;;;;;5123834;23;20921;-78
2021/04/18 03:52:14;;;;;;;6.47;4.47;;;8.40;98.30;;;;;;5123359;23;20445;-78
2021/04/18 03:54:17;;;;;;;6.20;4.40;;;8.40;98.30;;;;;;5123468;23;20446;-78
2021/04/18 03:56:19;;;;;;;7.93;5.07;;;8.40;98.30;;;;;;5115489;23;20774;-78
2021/04/18 03:58:21;;;;;;;5.83;4.70;;;8.30;98.30;;;;;;5115058;23;20455;-77
2021/04/18 04:00:23;;;;;;;8.60;5.20;;;8.30;98.30;;;;;;5115329;23;20465;-78
2021/04/18 04:02:25;;;;;;;8.10;5.37;;;8.20;98.30;;;;;;5115096;23;20463;-78
2021/04/18 04:04:28;;;;;;;8.27;5.13;;;8.20;98.30;;;;;;5115145;23;21075;-77
2021/04/18 04:06:31;;;;;;;6.23;5.20;;;8.20;98.30;;;;;;5123248;23;20431;-78
2021/04/18 04:08:33;;;;;;;8.83;5.50;;;8.20;98.30;;;;;;5114836;23;21013;-78
2021/04/18 04:10:35;;;;;;;7.60;4.50;;;8.20;98.30;;;;;;5115184;23;20464;-78
2021/04/18 04:12:37;;;;;;;8.20;5.37;;;8.20;98.30;;;;;;5115046;23;20457;-77
2021/04/18 04:14:39;;;;;;;7.80;4.97;;;8.20;98.30;;;;;;5114211;23;20458;-77
2021/04/18 04:16:41;;;;;;;10.80;5.30;;;8.20;98.30;;;;;;5115170;23;20456;-78
2021/04/18 04:18:43;;;;;;;10.23;5.00;;;8.10;98.30;;;;;;5114780;23;20462;-78
2021/04/18 04:20:45;;;;;;;8.13;4.90;;;8.00;98.30;;;;;;5115174;23;20727;-79
2021/04/18 04:22:47;;;;;;;5.77;4.50;;;8.10;98.30;;;;;;5123462;23;20452;-78
2021/04/18 04:24:52;;;;;;;11.63;5.77;;;8.20;98.30;;;;;;5123429;23;20446;-78
2021/04/18 04:26:54;;;;;;;8.53;4.90;;;8.20;98.30;;;;;;5114994;23;20742;-78
2021/04/18 04:28:55;;;;;;;6.87;5.17;;;8.20;98.30;;;;;;5114951;23;20454;-78
2021/04/18 04:30:58;;;;;;;8.17;5.20;;;8.20;98.30;;;;;;5123139;23;20449;-78
2021/04/18 04:33:00;;;;;;;7.27;5.40;;;8.20;98.30;;;;;;5114532;23;20454;-78
2021/04/18 04:35:02;;;;;;;7.27;4.97;;;8.10;98.30;;;;;;5114691;23;20458;-78
2021/04/18 04:37:05;;;;;;;5.73;5.10;;;8.10;98.30;;;;;;5115113;23;20460;-78
2021/04/18 04:39:07;;;;;;;7.40;5.27;;;8.00;98.30;;;;;;5114900;23;20460;-78
2021/04/18 04:41:10;;;;;;;10.53;5.63;;;8.00;98.30;;;;;;5114857;23;20507;-78
2021/04/18 04:43:12;;;;;;;9.23;4.43;;;7.90;98.30;;;;;;5114548;23;20468;-78
2021/04/18 04:45:14;;;;;;;8.73;5.33;;;7.90;98.30;;;;;;5114461;23;20508;-77
2021/04/18 04:47:16;;;;;;;6.83;4.93;;;8.00;98.30;;;;;;5114545;23;20461;-78
2021/04/18 04:49:19;;;;;;;8.30;5.37;;;7.90;98.30;;;;;;5114649;23;20500;-78
2021/04/18 04:51:21;;;;;;;6.03;4.90;;;8.00;98.30;;;;;;5115191;23;20966;-78
2021/04/18 04:53:23;;;;;;;9.53;4.83;;;8.00;98.30;;;;;;5115385;23;20461;-78
2021/04/18 04:55:25;;;;;;;6.10;4.33;;;7.90;98.30;;;;;;5114868;23;20457;-78
2021/04/18 04:57:27;;;;;;;8.87;4.67;;;7.90;98.30;;;;;;5114582;23;20450;-78
2021/04/18 04:59:29;;;;;;;10.00;5.30;;;8.00;98.30;;;;;;5114524;23;20457;-78
2021/04/18 05:01:31;;;;;;;10.10;5.10;;;8.00;98.30;;;;;;5114969;23;20541;-78
2021/04/18 05:03:33;;;;;;;6.83;5.07;;;7.90;98.30;;;;;;5115153;23;20504;-78
2021/04/18 05:05:40;;;;;;;7.00;4.50;;;7.90;98.30;;;;;;5114966;23;20457;-77
2021/04/18 05:07:44;;;;;;;10.63;6.10;;;8.00;98.30;;;;;;5114945;23;20454;-78
2021/04/18 05:09:47;;;;;;;10.67;5.30;;;7.90;98.30;;;;;;5114777;23;20458;-77
2021/04/18 05:11:49;;;;;;;6.47;4.70;;;7.90;98.30;;;;;;5115010;23;20464;-77
2021/04/18 05:13:51;;;;;;;9.43;5.00;;;7.90;98.30;;;;;;5114695;23;20461;-78
2021/04/18 05:15:52;;;;;;;7.70;4.77;;;8.00;98.30;;;;;;5123252;23;20457;-78
2021/04/18 05:17:54;;;;;;;6.83;4.43;;;8.10;98.30;;;;;;5114548;23;20456;-78
2021/04/18 05:19:56;;;;;;;6.77;4.13;;;8.10;98.30;;;;;;5115007;23;20458;-78
2021/04/18 05:21:58;;;;;;;7.90;4.70;;;8.10;98.30;;;;;;5114923;23;20779;-78
2021/04/18 05:24:00;;;;;;;9.07;5.40;;;8.20;98.30;;;;;;5115266;23;20450;-78
2021/04/18 05:26:03;;;;;;;6.90;4.70;;;8.30;98.30;;;;;;5114713;23;20449;-78
2021/04/18 05:28:05;;;;;;;9.97;4.53;;;8.20;98.30;;;;;;5114060;23;20458;-78
2021/04/18 05:30:11;;;;;;;7.73;5.00;;;8.20;98.30;;;;;;5114636;23;21076;-78
2021/04/18 05:32:13;;;;;;;8.27;4.50;;;8.10;98.30;;;;;;5114948;23;21009;-78
2021/04/18 05:34:15;;;;;;;6.50;4.90;;;8.20;98.30;;;;;;5114417;23;20516;-78
2021/04/18 05:36:17;;;;;;;7.50;4.43;;;8.20;98.30;;;;;;5114496;23;21115;-78
2021/04/18 05:38:19;;;;;;;5.40;4.07;;;8.20;98.30;;;;;;5114284;23;20977;-77
2021/04/18 05:40:21;;;;;;;8.70;5.70;;;8.20;98.30;;;;;;5115049;23;20783;-78
2021/04/18 05:42:24;;;;;;;10.00;5.40;;;8.30;98.30;;;;;;5114624;23;20461;-78
2021/04/18 05:44:26;;;;;;;10.00;4.80;;;8.40;98.30;;;;;;5114747;23;20468;-77
2021/04/18 05:46:28;;;;;;;9.70;6.10;;;8.30;98.30;;;;;;5122634;23;20988;-77
2021/04/18 05:48:30;;;;;;;10.20;4.90;;;8.50;98.30;;;;;;5123085;23;20805;-78
2021/04/18 05:50:33;;;;;;;8.37;5.03;;;8.50;98.30;;;;;;5114632;23;20436;-78
2021/04/18 05:52:35;;;;;;;10.70;4.97;;;8.50;98.30;;;;;;5114736;23;20439;-78
2021/04/18 05:54:37;;;;;;;9.57;4.90;;;8.60;98.30;;;;;;5114291;23;20453;-77
2021/04/18 05:56:39;;;;;;;8.57;5.40;;;8.60;98.30;;;;;;5113911;23;20485;-78
2021/04/18 05:58:42;;;;;;;9.33;4.93;;;8.70;98.30;;;;;;5114506;23;20450;-78
2021/04/18 06:00:44;;;;;;;8.00;5.00;;;8.70;98.30;;;;;;5115125;23;20465;-78
2021/04/18 06:02:46;;;;;;;10.40;5.10;;;8.70;98.30;;;;;;5122852;23;20442;-77
2021/04/18 06:04:48;;;;;;;7.70;5.33;;;8.60;98.30;;;;;;5114998;23;20951;-78
2021/04/18 06:06:50;;;;;;;12.37;5.63;;;8.80;98.30;;;;;;5123316;23;20442;-78
2021/04/18 06:08:53;;;;;;;8.93;5.10;;;8.90;98.30;;;;;;5115151;23;20461;-78
2021/04/18 06:10:54;;;;;;;10.20;5.37;;;8.90;98.30;;;;;;5115099;23;20519;-78
2021/04/18 06:12:56;;;;;;;8.57;4.53;;;8.90;98.30;;;;;;5116273;23;20504;-78
2021/04/18 06:14:59;;;;;;;11.90;5.40;;;8.90;98.30;;;;;;5115886;23;20545;-78
2021/04/18 06:17:01;;;;;;;10.77;5.30;;;9.10;98.30;;;;;;5115949;23;20801;-78
2021/04/18 06:19:03;;;;;;;7.17;4.63;;;9.10;98.30;;;;;;5115603;23;20549;-78
2021/04/18 06:21:06;;;;;;;6.80;4.80;;;9.10;98.30;;;;;;5116137;23;20445;-79
2021/04/18 06:23:08;;;;;;;8.70;5.20;;;9.30;98.30;;;;;;5115682;23;20474;-78
2021/04/18 06:25:11;;;;;;;10.50;5.40;;;9.50;98.30;;;;;;5115746;23;20797;-78
2021/04/18 06:27:13;;;;;;;8.47;4.87;;;9.60;98.30;;;;;;5115937;23;20431;-78
2021/04/18 06:29:14;;;;;;;7.97;5.73;;;9.70;98.30;;;;;;5115600;23;20457;-78
2021/04/18 06:31:17;;;;;;;9.73;5.50;;;9.80;98.30;;;;;;5116333;23;20427;-78
2021/04/18 06:33:19;;;;;;;8.93;5.27;;;9.70;98.30;;;;;;5115989;23;20432;-78
2021/04/18 06:35:22;;;;;;;9.17;6.60;;;9.70;98.30;;;;;;5116078;23;20488;-78
2021/04/18 06:37:23;;;;;;;8.63;5.30;;;9.70;98.30;;;;;;5115570;23;20461;-78
2021/04/18 06:39:25;;;;;;;8.77;5.40;;;9.70;98.30;;;;;;5115552;23;20845;-78
2021/04/18 06:41:30;;;;;;;9.03;6.20;;;9.70;98.30;;;;;;5115468;23;20482;-78
2021/04/18 06:43:32;;;;;;;8.37;5.00;;;9.70;98.30;;;;;;5115247;23;20436;-78
2021/04/18 06:45:35;;;;;;;8.67;4.83;;;9.80;98.30;;;;;;5115527;23;20483;-78
2021/04/18 06:47:39;;;;;;;13.50;5.27;;;9.80;98.30;;;;;;5115847;23;20467;-78
2021/04/18 06:49:42;;;;;;;13.23;5.43;;;9.80;98.30;;;;;;5124032;23;20413;-79
2021/04/18 06:51:45;;;;;;;8.47;5.40;;;9.80;98.30;;;;;;5115772;23;20439;-79
2021/04/18 06:53:47;;;;;;;7.93;5.10;;;9.90;98.30;;;;;;5116175;23;20435;-78
2021/04/18 06:55:49;;;;;;;12.53;5.67;;;10.00;98.30;;;;;;5115436;23;20457;-78
2021/04/18 06:57:51;;;;;;;10.40;5.63;;;10.10;98.30;;;;;;5115608;23;20428;-78
2021/04/18 06:59:53;;;;;;;9.63;4.87;;;10.20;98.30;;;;;;5124119;23;20457;-78
2021/04/18 07:01:55;;;;;;;12.53;5.83;;;10.20;98.30;;;;;;5115383;23;20460;-77
2021/04/18 07:04:16;;;;;;;11.57;6.23;;;10.00;98.30;;;;;;5124043;23;20468;-78
2021/04/18 07:06:37;;;;;;;10.63;5.17;;;10.20;98.30;;;;;;5115599;23;20943;-78
2021/04/18 07:08:38;;;;;;;12.27;6.30;;;10.00;98.30;;;;;;5115509;23;20487;-78
2021/04/18 07:10:40;;;;;;;9.43;5.50;;;9.90;98.30;;;;;;5115704;23;20428;-78
2021/04/18 07:12:42;;;;;;;15.03;5.93;;;10.10;98.30;;;;;;5115615;23;20929;-78
2021/04/18 07:14:44;;;;;;;11.73;6.50;;;10.20;98.30;;;;;;5115464;23;20434;-78
2021/04/18 07:16:46;;;;;;;10.43;5.63;;;10.10;98.30;;;;;;5115586;23;20436;-78
2021/04/18 07:18:49;;;;;;;8.97;5.03;;;10.00;98.30;;;;;;5114619;23;20437;-78
2021/04/18 07:20:53;;;;;;;8.73;5.63;;;10.00;98.30;;;;;;5115701;23;20454;-78
2021/04/18 07:22:55;;;;;;;8.57;5.23;;;10.10;98.30;;;;;;5115172;23;20752;-78
2021/04/18 07:24:58;;;;;;;15.50;5.77;;;10.30;98.30;;;;;;5115795;23;20453;-78
2021/04/18 07:27:02;;;;;;;9.20;5.57;;;10.60;98.30;;;;;;5115438;23;20428;-78
2021/04/18 07:29:13;;;;;;;8.33;5.13;;;10.80;98.30;;;;;;5115322;23;20428;-78
2021/04/18 07:31:29;;;;;;;10.53;5.10;;;10.90;98.30;;;;;;5115386;23;20544;-78
2021/04/18 07:33:31;;;;;;;7.80;5.23;;;10.90;98.30;;;;;;5115672;23;21001;-78
2021/04/18 07:35:35;;;;;;;11.13;5.70;;;10.90;98.30;;;;;;5122931;23;20433;-78
2021/04/18 07:37:38;;;;;;;7.50;5.57;;;10.70;98.30;;;;;;5124025;23;20456;-78
2021/04/18 07:39:45;;;;;;;11.83;5.30;;;10.80;98.30;;;;;;5115300;23;20424;-78
2021/04/18 07:41:49;;;;;;;7.43;4.77;;;10.90;98.30;;;;;;5123755;23;20442;-78
2021/04/18 07:43:52;;;;;;;7.30;5.67;;;11.10;98.30;;;;;;5090810;23;20465;-78
2021/04/18 07:45:54;;;;;;;12.17;8.37;;;11.20;98.30;;;;;;5099029;23;20530;-78
2021/04/18 07:47:56;;;;;;;10.50;7.80;;;11.30;98.30;;;;;;5090625;23;20470;-78
2021/04/18 07:49:59;;;;;;;19.50;10.00;;;11.40;98.30;;;;;;5091063;23;20433;-78
2021/04/18 07:52:01;;;;;;;14.57;8.30;;;11.50;98.30;;;;;;5098998;23;20443;-79
2021/04/18 07:54:04;;;;;;;14.30;6.23;;;11.70;98.30;;;;;;5091054;23;21045;-78
2021/04/18 07:56:08;;;;;;;12.87;5.93;;;11.90;98.30;;;;;;5090422;23;20785;-79
2021/04/18 07:58:11;;;;;;;10.10;5.67;;;12.00;98.30;;;;;;5090515;23;20459;-80
2021/04/18 08:00:14;;;;;;;11.93;6.10;;;12.20;98.30;;;;;;5090564;23;20458;-80
2021/04/18 08:02:19;;;;;;;9.70;5.53;;;12.20;98.30;;;;;;5090787;23;20569;-79
2021/04/18 08:04:21;;;;;;;12.57;6.37;;;12.30;98.30;;;;;;5090513;23;20474;-79
2021/04/18 08:06:26;;;;;;;29.77;16.60;;;12.40;98.30;;;;;;5090868;23;20455;-79
2021/04/18 08:08:43;;;;;;;31.63;17.37;;;12.50;98.30;;;;;;5089884;23;20458;-79
2021/04/18 08:10:47;;;;;;;26.27;15.53;;;12.80;98.30;;;;;;5090731;23;21015;-79
2021/04/18 08:13:11;;;;;;;12.70;9.10;;;13.00;98.30;;;;;;5098935;23;20526;-79
2021/04/18 08:15:14;;;;;;;17.83;10.20;;;13.10;97.60;;;;;;5090398;23;20451;-79
2021/04/18 08:17:18;;;;;;;40.27;23.60;;;13.20;97.70;;;;;;5090585;23;20455;-79
2021/04/18 08:19:20;;;;;;;10.03;7.40;;;13.30;97.60;;;;;;5097831;23;20513;-79
2021/04/18 08:21:28;;;;;;;7.00;5.70;;;13.40;96.80;;;;;;5090853;23;20760;-79
2021/04/18 08:23:38;;;;;;;13.23;6.87;;;13.50;97.20;;;;;;5090895;23;20450;-79
2021/04/18 08:26:12;;;;;;;9.20;6.27;;;13.20;96.90;;;;;;5090890;23;20453;-79
2021/04/18 08:28:14;;;;;;;19.30;7.23;;;13.00;97.80;;;;;;5089998;23;20530;-79
2021/04/18 08:30:16;;;;;;;13.83;6.33;;;13.20;97.90;;;;;;5090789;23;20459;-79
2021/04/18 08:32:18;;;;;;;8.73;7.00;;;13.40;97.60;;;;;;5090532;23;20451;-79
2021/04/18 08:34:21;;;;;;;15.20;8.60;;;13.50;97.20;;;;;;5098619;23;20759;-79
2021/04/18 08:36:25;;;;;;;14.10;8.87;;;13.70;96.70;;;;;;5090691;23;20459;-79
2021/04/18 08:38:27;;;;;;;14.20;8.93;;;13.70;97.20;;;;;;5090752;23;20458;-79
2021/04/18 08:40:30;;;;;;;33.10;21.47;;;13.90;96.80;;;;;;5099158;23;21237;-79
2021/04/18 08:42:34;;;;;;;25.67;18.17;;;14.10;96.20;;;;;;5099749;23;20461;-79
2021/04/18 08:44:44;;;;;;;17.67;13.47;;;14.20;96.20;;;;;;5115122;23;20464;-79
2021/04/18 08:46:48;;;;;;;20.50;12.40;;;14.40;95.70;;;;;;5114677;23;20452;-79
2021/04/18 08:48:50;;;;;;;12.10;9.20;;;14.60;94.80;;;;;;5122567;23;20956;-79
2021/04/18 08:51:10;;;;;;;17.10;12.53;;;14.60;94.30;;;;;;5114816;23;20460;-79
2021/04/18 08:53:12;;;;;;;27.10;15.70;;;14.70;94.00;;;;;;5115025;23;20577;-79
2021/04/18 08:55:15;;;;;;;11.77;8.50;;;14.70;94.00;;;;;;5114242;23;20458;-79
2021/04/18 08:57:22;;;;;;;12.60;8.23;;;14.50;93.40;;;;;;5114662;23;20485;-79
2021/04/18 08:59:26;;;;;;;9.60;7.37;;;14.50;93.80;;;;;;5114136;23;20815;-79
2021/04/18 09:01:30;;;;;;;12.70;9.20;;;14.10;94.20;;;;;;5114610;23;20466;-79
2021/04/18 09:03:32;;;;;;;12.77;9.60;;;14.00;95.20;;;;;;5114549;23;20453;-79
2021/04/18 09:05:36;;;;;;;12.03;7.17;;;14.00;95.70;;;;;;5122803;23;20452;-79
2021/04/18 09:07:43;;;;;;;12.27;8.10;;;13.90;95.50;;;;;;5114352;23;20453;-79
2021/04/18 09:09:45;;;;;;;9.20;6.97;;;14.00;95.70;;;;;;5114765;23;20454;-79
2021/04/18 09:11:48;;;;;;;10.07;7.13;;;14.00;95.10;;;;;;5114627;23;20967;-79
2021/04/18 09:13:57;;;;;;;15.53;10.67;;;13.90;95.60;;;;;;5114746;23;20464;-79
2021/04/18 09:16:00;;;;;;;27.00;17.90;;;13.80;95.80;;;;;;5114569;23;20468;-79
2021/04/18 09:18:02;;;;;;;12.53;8.57;;;13.90;95.60;;;;;;5111633;23;20460;-79
2021/04/18 09:20:07;;;;;;;8.47;7.00;;;14.20;95.20;;;;;;5113992;23;20850;-79
2021/04/18 09:22:11;;;;;;;11.27;7.20;;;14.30;93.70;;;;;;5114112;23;20528;-79
2021/04/18 09:24:13;;;;;;;8.83;6.73;;;14.50;94.30;;;;;;5114915;23;20461;-79
2021/04/18 09:26:15;;;;;;;12.17;7.77;;;14.80;93.60;;;;;;5114331;23;20445;-78
2021/04/18 09:28:17;;;;;;;12.90;7.53;;;14.90;93.00;;;;;;5114054;23;20449;-78
2021/04/18 09:33:16;;;;;;;7.80;6.97;;;15.60;90.90;;;;;;5112634;23;20450;-79
2021/04/18 09:35:20;;;;;;;10.93;6.90;;;15.90;90.30;;;;;;5122186;23;20450;-80
2021/04/18 09:37:26;;;;;;;8.70;7.90;;;16.10;89.00;;;;;;5122288;23;20709;-81
2021/04/18 09:39:30;;;;;;;9.40;7.13;;;16.20;88.90;;;;;;5114587;23;20452;-80
2021/04/18 09:41:36;;;;;;;9.90;7.87;;;16.10;88.40;;;;;;5114862;23;20544;-77
2021/04/18 09:43:38;;;;;;;9.63;7.10;;;15.90;88.70;;;;;;5114131;23;20468;-77
2021/04/18 09:45:41;;;;;;;14.70;9.63;;;15.90;89.00;;;;;;5113798;23;20453;-78
2021/04/18 09:47:45;;;;;;;10.30;7.27;;;16.00;89.20;;;;;;5115270;23;20767;-82
2021/04/18 09:49:59;;;;;;;13.20;7.20;;;16.10;88.70;;;;;;5116272;23;20480;-78
2021/04/18 09:52:02;;;;;;;13.10;7.20;;;15.90;88.40;;;;;;5116196;23;20480;-78
2021/04/18 09:54:05;;;;;;;7.87;6.80;;;16.00;88.90;;;;;;5116016;23;20450;-77
2021/04/18 09:56:08;;;;;;;13.37;9.53;;;16.20;89.20;;;;;;5115697;23;20484;-82
2021/04/18 09:58:24;;;;;;;14.57;11.20;;;16.40;88.80;;;;;;5115945;23;20453;-78
2021/04/18 10:00:34;;;;;;;18.20;12.03;;;16.50;88.10;;;;;;5116527;23;21008;-77
2021/04/18 10:02:36;;;;;;;13.00;7.30;;;16.80;88.10;;;;;;5116627;23;20460;-77
2021/04/18 10:04:39;;;;;;;9.60;7.70;;;16.80;86.30;;;;;;5124551;23;20504;-78
2021/04/18 10:06:48;;;;;;;10.60;7.53;;;16.30;86.80;;;;;;5116645;23;20538;-78
2021/04/18 10:08:55;;;;;;;9.67;7.20;;;16.20;87.40;;;;;;5124076;23;20453;-78
2021/04/18 10:10:58;;;;;;;10.37;7.20;;;16.20;87.40;;;;;;5116248;23;20520;-77
2021/04/18 10:13:00;;;;;;;10.10;7.60;;;16.40;87.40;;;;;;5116359;23;20457;-78
2021/04/18 10:15:05;;;;;;;10.07;6.30;;;16.70;87.10;;;;;;5116722;23;20763;-77
2021/04/18 10:17:07;;;;;;;8.90;6.70;;;17.00;86.10;;;;;;5116175;23;20475;-80
2021/04/18 10:19:14;;;;;;;9.40;7.00;;;17.10;85.40;;;;;;5115497;23;20461;-78
2021/04/18 10:21:18;;;;;;;9.57;6.70;;;17.10;85.40;;;;;;5116395;23;20457;-78
2021/04/18 10:23:32;;;;;;;9.80;6.60;;;17.30;85.10;;;;;;5116438;23;20449;-80
2021/04/18 10:25:36;;;;;;;8.30;6.57;;;17.60;84.90;;;;;;5115833;23;20459;-78
2021/04/18 10:27:38;;;;;;;9.50;6.83;;;17.50;83.70;;;;;;5115445;23;20791;-79
2021/04/18 10:29:42;;;;;;;7.57;6.83;;;17.10;84.60;;;;;;5115731;23;20571;-80
2021/04/18 10:31:49;;;;;;;10.23;6.60;;;17.10;85.00;;;;;;5110880;23;20472;-79
2021/04/18 10:33:51;;;;;;;11.50;8.60;;;17.40;84.90;;;;;;5116945;23;20524;-81
2021/04/18 10:35:56;;;;;;;9.17;7.07;;;17.60;84.80;;;;;;5116719;23;20767;-81
2021/04/18 10:38:00;;;;;;;7.33;6.63;;;17.90;83.70;;;;;;5114296;23;20509;-81
2021/04/18 10:40:04;;;;;;;8.70;7.00;;;18.10;83.50;;;;;;5125045;23;20450;-81
2021/04/18 10:45:42;;;;;;;14.20;7.77;;;18.80;82.10;;;;;;5108639;23;20460;-81
2021/04/18 10:47:44;;;;;;;12.10;7.47;;;19.00;81.60;;;;;;5115840;23;20806;-81